createdAt,value
2019-03-29T00:00:12.106Z,6.30
2019-03-29T00:02:39.666Z,6.20
2019-03-29T00:05:07.269Z,6.20
2019-03-29T00:07:39.975Z,6.20
2019-03-29T00:10:04.337Z,6.20
2019-03-29T00:12:31.910Z,6.20
2019-03-29T00:14:59.426Z,6.30
2019-03-29T00:17:26.906Z,6.20
2019-03-29T00:19:54.645Z,6.30
2019-03-29T00:22:22.258Z,6.30
2019-03-29T00:24:49.626Z,6.40
2019-03-29T00:27:17.210Z,6.30
2019-03-29T00:29:44.701Z,6.30
2019-03-29T00:32:12.174Z,6.30
2019-03-29T00:34:39.639Z,6.30
2019-03-29T00:37:07.184Z,6.30
2019-03-29T00:39:34.748Z,6.30
2019-03-29T00:42:02.227Z,6.30
2019-03-29T00:44:29.730Z,6.40
2019-03-29T00:46:57.227Z,6.40
2019-03-29T00:49:24.605Z,6.40
2019-03-29T00:51:52.126Z,6.40
2019-03-29T00:54:19.695Z,6.40
2019-03-29T00:56:47.284Z,6.30
2019-03-29T00:59:15.160Z,6.20
2019-03-29T01:01:42.719Z,6.20
2019-03-29T01:04:10.203Z,6.10
2019-03-29T01:06:39.073Z,6.10
2019-03-29T01:09:06.857Z,6.10
2019-03-29T01:11:34.524Z,6.10
2019-03-29T01:14:02.133Z,6.10
2019-03-29T01:16:29.694Z,6.10
2019-03-29T01:18:57.282Z,6.10
2019-03-29T01:21:24.987Z,6.10
2019-03-29T01:23:52.581Z,6.20
2019-03-29T01:26:20.137Z,6.20
2019-03-29T01:28:47.680Z,6.20
2019-03-29T01:31:15.160Z,6.20
2019-03-29T01:33:42.699Z,6.10
2019-03-29T01:36:10.216Z,6.10
2019-03-29T01:38:37.662Z,6.10
2019-03-29T01:41:05.152Z,6.10
2019-03-29T01:43:32.753Z,6.10
2019-03-29T01:46:00.330Z,6.00
2019-03-29T01:48:27.818Z,6.10
2019-03-29T01:50:55.456Z,6.10
2019-03-29T01:53:23.088Z,6.10
2019-03-29T01:55:50.438Z,6.00
2019-03-29T01:58:17.960Z,6.00
2019-03-29T02:00:45.481Z,5.90
2019-03-29T02:03:13.175Z,5.90
2019-03-29T02:05:41.078Z,5.90
2019-03-29T02:08:08.642Z,5.90
2019-03-29T02:10:36.127Z,5.90
2019-03-29T02:13:03.780Z,5.90
2019-03-29T02:15:31.263Z,5.80
2019-03-29T02:17:58.721Z,5.80
2019-03-29T02:20:26.228Z,5.80
2019-03-29T02:22:53.881Z,5.80
2019-03-29T02:25:21.346Z,5.80
2019-03-29T02:27:48.998Z,5.80
2019-03-29T02:30:16.807Z,5.80
2019-03-29T02:32:44.414Z,5.80
2019-03-29T02:35:12.039Z,5.80
2019-03-29T02:37:39.572Z,5.80
2019-03-29T02:40:07.466Z,5.80
2019-03-29T02:42:34.990Z,5.70
2019-03-29T02:45:03.626Z,5.70
2019-03-29T02:47:31.453Z,5.60
2019-03-29T02:49:59.047Z,5.60
2019-03-29T02:52:26.553Z,5.60
2019-03-29T02:54:54.139Z,5.50
2019-03-29T02:57:21.647Z,5.50
2019-03-29T02:59:49.105Z,5.50
2019-03-29T03:02:16.667Z,5.50
2019-03-29T03:04:44.163Z,5.50
2019-03-29T03:07:11.732Z,5.50
2019-03-29T03:09:39.219Z,5.30
2019-03-29T03:12:07.114Z,5.40
2019-03-29T03:14:34.650Z,5.30
2019-03-29T03:17:02.243Z,5.20
2019-03-29T03:19:29.928Z,5.30
2019-03-29T03:21:57.411Z,5.30
2019-03-29T03:24:24.967Z,5.30
2019-03-29T03:26:52.475Z,5.20
2019-03-29T03:29:20.023Z,5.20
2019-03-29T03:31:47.500Z,5.20
2019-03-29T03:34:15.203Z,5.20
2019-03-29T03:36:42.608Z,5.20
2019-03-29T03:39:10.065Z,5.20
2019-03-29T03:41:37.770Z,5.20
2019-03-29T03:44:05.728Z,5.20
2019-03-29T03:46:33.211Z,5.30
2019-03-29T03:49:00.985Z,5.30
2019-03-29T03:51:28.648Z,5.40
2019-03-29T03:53:56.207Z,5.30
2019-03-29T03:56:25.255Z,5.30
2019-03-29T03:58:53.112Z,5.20
2019-03-29T04:01:20.761Z,5.20
2019-03-29T04:03:48.293Z,5.10
2019-03-29T04:06:15.755Z,5.10
2019-03-29T04:08:43.142Z,5.00
2019-03-29T04:11:10.548Z,5.00
2019-03-29T04:13:38.160Z,4.90
2019-03-29T04:16:05.749Z,4.90
2019-03-29T04:18:33.146Z,4.80
2019-03-29T04:21:00.523Z,4.80
2019-03-29T04:23:28.189Z,4.80
2019-03-29T04:25:55.709Z,4.70
2019-03-29T04:28:23.261Z,4.70
2019-03-29T04:30:50.859Z,4.60
2019-03-29T04:33:18.386Z,4.60
2019-03-29T04:35:45.966Z,4.60
2019-03-29T04:38:13.427Z,4.60
2019-03-29T04:40:41.038Z,4.60
2019-03-29T04:43:08.414Z,4.60
2019-03-29T04:45:35.977Z,4.70
2019-03-29T04:48:03.723Z,4.70
2019-03-29T04:50:31.388Z,4.80
2019-03-29T04:52:58.862Z,4.80
2019-03-29T04:55:26.474Z,4.80
2019-03-29T04:57:53.960Z,4.80
2019-03-29T05:00:21.543Z,4.80
2019-03-29T05:02:49.145Z,4.80
2019-03-29T05:05:16.626Z,4.70
2019-03-29T05:07:44.190Z,4.70
2019-03-29T05:10:21.280Z,4.70
2019-03-29T05:12:41.400Z,4.70
2019-03-29T05:15:09.432Z,4.80
2019-03-29T05:17:37.100Z,4.80
2019-03-29T05:20:04.968Z,4.90
2019-03-29T05:22:32.445Z,4.90
2019-03-29T05:27:28.226Z,5.00
2019-03-29T05:29:55.829Z,5.00
2019-03-29T05:32:23.433Z,5.00
2019-03-29T05:34:50.897Z,5.00
2019-03-29T05:37:18.366Z,5.10
2019-03-29T05:39:45.883Z,5.10
2019-03-29T05:42:13.358Z,5.10
2019-03-29T05:44:41.058Z,5.10
2019-03-29T05:47:08.638Z,5.10
2019-03-29T05:49:36.225Z,5.30
2019-03-29T05:52:03.845Z,5.50
2019-03-29T05:54:31.356Z,5.70
2019-03-29T05:56:58.818Z,5.90
2019-03-29T05:59:26.301Z,6.20
2019-03-29T06:01:53.785Z,6.40
2019-03-29T06:04:21.850Z,6.50
2019-03-29T06:06:49.305Z,6.50
2019-03-29T06:09:17.081Z,6.60
2019-03-29T06:11:44.538Z,6.80
2019-03-29T06:14:12.109Z,6.90
2019-03-29T06:16:39.643Z,7.00
2019-03-29T06:19:07.190Z,7.10
2019-03-29T06:21:34.660Z,7.20
2019-03-29T06:24:02.192Z,7.30
2019-03-29T06:26:48.922Z,7.50
2019-03-29T06:29:16.498Z,7.50
2019-03-29T06:31:44.034Z,7.70
2019-03-29T06:34:11.934Z,7.80
2019-03-29T06:36:41.119Z,7.90
2019-03-29T06:39:09.516Z,7.80
2019-03-29T06:41:37.043Z,7.90
2019-03-29T06:44:04.651Z,8.00
2019-03-29T06:46:32.370Z,8.00
2019-03-29T06:48:59.833Z,8.00
2019-03-29T06:51:27.451Z,8.10
2019-03-29T06:53:54.809Z,8.20
2019-03-29T06:56:22.316Z,8.30
2019-03-29T06:58:49.794Z,8.40
2019-03-29T07:01:17.234Z,8.50
2019-03-29T07:03:45.055Z,8.50
2019-03-29T07:06:12.471Z,8.50
2019-03-29T07:08:40.290Z,8.50
2019-03-29T07:11:17.167Z,8.50
2019-03-29T07:13:37.951Z,8.60
2019-03-29T07:16:05.539Z,8.70
2019-03-29T07:18:33.202Z,8.70
2019-03-29T07:21:00.798Z,8.80
2019-03-29T07:23:28.448Z,8.80
2019-03-29T07:25:56.591Z,8.90
2019-03-29T07:28:24.449Z,9.00
2019-03-29T07:30:51.897Z,9.00
2019-03-29T07:33:19.403Z,9.00
2019-03-29T07:35:46.832Z,9.20
2019-03-29T07:38:14.270Z,9.10
2019-03-29T07:40:41.741Z,9.20
2019-03-29T07:43:09.253Z,9.20
2019-03-29T07:45:39.230Z,9.30
2019-03-29T07:48:08.926Z,9.30
2019-03-29T07:50:36.415Z,9.40
2019-03-29T07:53:03.888Z,9.50
2019-03-29T07:55:31.317Z,9.50
2019-03-29T07:57:58.878Z,9.50
2019-03-29T08:00:26.350Z,9.50
2019-03-29T08:02:55.185Z,9.60
2019-03-29T08:05:23.068Z,9.60
2019-03-29T08:07:50.527Z,9.90
2019-03-29T08:10:24.887Z,9.90
2019-03-29T08:12:49.248Z,10.00
2019-03-29T08:15:16.782Z,10.20
2019-03-29T08:17:44.346Z,10.20
2019-03-29T08:20:38.068Z,10.30
2019-03-29T08:22:41.272Z,10.60
2019-03-29T08:25:09.596Z,10.80
2019-03-29T08:27:37.004Z,10.80
2019-03-29T08:30:05.516Z,10.80
2019-03-29T08:32:32.981Z,10.80
2019-03-29T08:35:00.608Z,10.90
2019-03-29T08:37:28.066Z,11.00
2019-03-29T08:39:56.648Z,10.90
2019-03-29T08:42:24.359Z,11.00
2019-03-29T08:44:52.006Z,11.20
2019-03-29T08:47:19.500Z,11.40
2019-03-29T08:49:47.103Z,11.30
2019-03-29T08:52:14.661Z,11.50
2019-03-29T08:54:42.162Z,11.60
2019-03-29T08:57:10.700Z,11.70
2019-03-29T08:59:38.429Z,11.40
2019-03-29T09:02:06.225Z,11.50
2019-03-29T09:04:33.843Z,11.50
2019-03-29T09:07:01.483Z,11.60
2019-03-29T09:09:29.010Z,11.70
2019-03-29T09:11:56.436Z,11.80
2019-03-29T09:14:23.918Z,11.80
2019-03-29T09:16:51.373Z,11.90
2019-03-29T09:19:18.877Z,11.90
2019-03-29T09:21:46.328Z,11.90
2019-03-29T09:24:21.632Z,12.00
2019-03-29T09:26:43.207Z,12.00
2019-03-29T09:29:10.702Z,12.10
2019-03-29T09:31:38.898Z,12.20
2019-03-29T09:34:06.414Z,12.20
2019-03-29T09:36:33.985Z,12.30
2019-03-29T09:39:01.623Z,12.40
2019-03-29T09:41:29.233Z,12.50
2019-03-29T09:43:56.597Z,12.60
2019-03-29T09:46:24.179Z,12.60
2019-03-29T09:48:51.677Z,12.70
2019-03-29T09:51:19.235Z,12.90
2019-03-29T09:53:46.706Z,13.10
2019-03-29T09:56:14.401Z,13.00
2019-03-29T09:58:44.957Z,13.20
2019-03-29T10:01:11.385Z,13.10
2019-03-29T10:03:39.092Z,13.10
2019-03-29T10:06:06.549Z,13.20
2019-03-29T10:08:34.144Z,13.10
2019-03-29T10:11:01.561Z,12.80
2019-03-29T10:13:29.309Z,12.50
2019-03-29T10:15:56.875Z,12.70
2019-03-29T10:18:24.399Z,12.80
2019-03-29T10:20:51.878Z,12.80
2019-03-29T10:23:19.253Z,13.10
2019-03-29T10:25:46.759Z,12.90
2019-03-29T10:28:14.215Z,12.60
2019-03-29T10:30:46.475Z,12.50
2019-03-29T10:33:12.861Z,12.50
2019-03-29T10:35:51.434Z,12.50
2019-03-29T10:38:09.898Z,12.60
2019-03-29T10:40:37.509Z,12.60
2019-03-29T10:43:05.219Z,12.40
2019-03-29T10:45:37.999Z,12.30
2019-03-29T10:48:02.448Z,12.50
2019-03-29T10:50:30.049Z,12.70
2019-03-29T10:52:57.686Z,12.80
2019-03-29T10:55:25.307Z,12.90
2019-03-29T10:57:52.770Z,13.00
2019-03-29T11:00:37.249Z,12.90
2019-03-29T11:03:05.405Z,12.90
2019-03-29T11:05:32.974Z,12.80
2019-03-29T11:08:00.497Z,12.80
2019-03-29T11:10:32.278Z,12.60
2019-03-29T11:13:11.707Z,12.60
2019-03-29T11:15:29.593Z,12.60
2019-03-29T11:17:57.127Z,12.70
2019-03-29T11:20:24.700Z,12.90
2019-03-29T11:22:52.202Z,12.80
2019-03-29T11:25:19.771Z,12.60
2019-03-29T11:27:47.142Z,12.50
2019-03-29T11:30:14.730Z,12.60
2019-03-29T11:32:42.386Z,12.70
2019-03-29T11:35:09.953Z,12.80
2019-03-29T11:37:37.461Z,13.00
2019-03-29T11:40:05.413Z,13.20
2019-03-29T11:42:33.063Z,13.50
2019-03-29T11:45:00.655Z,13.30
2019-03-29T11:47:28.234Z,13.30
2019-03-29T11:49:55.714Z,13.40
2019-03-29T11:52:23.321Z,13.20
2019-03-29T11:54:50.771Z,13.10
2019-03-29T11:57:18.142Z,13.30
2019-03-29T11:59:45.765Z,13.30
2019-03-29T12:02:13.313Z,13.10
2019-03-29T12:04:40.902Z,12.80
2019-03-29T12:07:08.398Z,12.80
2019-03-29T12:09:35.849Z,12.50
2019-03-29T12:12:03.457Z,12.50
2019-03-29T12:14:31.067Z,12.50
2019-03-29T12:16:58.860Z,12.80
2019-03-29T12:19:26.319Z,13.20
2019-03-29T12:21:53.929Z,13.10
2019-03-29T12:24:21.421Z,12.80
2019-03-29T12:26:48.990Z,13.00
2019-03-29T12:29:16.577Z,13.30
2019-03-29T12:31:44.130Z,13.40
2019-03-29T12:34:11.813Z,13.30
2019-03-29T12:36:39.413Z,13.40
2019-03-29T12:39:06.979Z,13.60
2019-03-29T12:41:34.346Z,13.60
2019-03-29T12:44:01.854Z,13.50
2019-03-29T12:46:32.163Z,13.40
2019-03-29T12:48:58.744Z,13.30
2019-03-29T12:51:26.330Z,13.50
2019-03-29T12:53:53.907Z,13.80
2019-03-29T12:56:21.480Z,13.70
2019-03-29T12:58:48.873Z,13.60
2019-03-29T13:01:16.472Z,13.60
2019-03-29T13:03:44.186Z,13.70
2019-03-29T13:06:11.834Z,13.70
2019-03-29T13:08:39.498Z,13.70
2019-03-29T13:11:07.071Z,13.50
2019-03-29T13:13:34.718Z,13.40
2019-03-29T13:16:02.289Z,13.40
2019-03-29T13:18:29.770Z,13.60
2019-03-29T13:20:57.538Z,13.70
2019-03-29T13:23:24.902Z,13.70
2019-03-29T13:25:52.468Z,13.60
2019-03-29T13:28:19.962Z,13.50
2019-03-29T13:30:47.640Z,13.30
2019-03-29T13:33:15.358Z,13.20
2019-03-29T13:35:44.547Z,13.10
2019-03-29T13:38:12.262Z,13.10
2019-03-29T13:40:39.946Z,13.20
2019-03-29T13:43:07.446Z,13.20
2019-03-29T13:45:34.908Z,13.10
2019-03-29T13:48:02.575Z,13.10
2019-03-29T13:50:30.172Z,13.10
2019-03-29T13:52:57.731Z,13.10
2019-03-29T13:55:25.324Z,13.20
2019-03-29T13:57:52.852Z,13.20
2019-03-29T14:00:20.551Z,13.10
2019-03-29T14:02:48.018Z,13.10
2019-03-29T14:05:15.691Z,13.10
2019-03-29T14:07:43.073Z,13.00
2019-03-29T14:10:11.303Z,13.10
2019-03-29T14:12:39.140Z,13.00
2019-03-29T14:15:08.407Z,13.10
2019-03-29T14:17:35.918Z,13.00
2019-03-29T14:20:03.947Z,12.90
2019-03-29T14:22:31.314Z,13.00
2019-03-29T14:24:58.854Z,13.00
2019-03-29T14:27:26.274Z,12.90
2019-03-29T14:30:04.059Z,12.90
2019-03-29T14:32:23.594Z,12.80
2019-03-29T14:34:51.574Z,12.70
2019-03-29T14:37:19.038Z,12.70
2019-03-29T14:39:46.949Z,12.70
2019-03-29T14:42:14.438Z,12.80
2019-03-29T14:44:52.244Z,12.60
2019-03-29T14:47:11.430Z,12.60
2019-03-29T14:49:38.938Z,12.50
2019-03-29T14:52:06.310Z,12.60
2019-03-29T14:54:33.658Z,12.60
2019-03-29T14:57:01.150Z,12.60
2019-03-29T14:59:28.702Z,12.40
2019-03-29T15:01:56.275Z,12.40
2019-03-29T15:04:23.884Z,12.40
2019-03-29T15:06:51.422Z,12.30
2019-03-29T15:09:19.880Z,12.30
2019-03-29T15:11:47.637Z,12.30
2019-03-29T15:14:15.105Z,12.20
2019-03-29T15:16:42.465Z,12.20
2019-03-29T15:19:10.186Z,12.20
2019-03-29T15:21:37.727Z,12.20
2019-03-29T15:24:05.166Z,12.10
2019-03-29T15:26:32.557Z,12.10
2019-03-29T15:29:00.025Z,12.10
2019-03-29T15:31:27.477Z,12.00
2019-03-29T15:33:55.782Z,12.00
2019-03-29T15:36:23.415Z,12.00
2019-03-29T15:38:50.982Z,11.90
2019-03-29T15:41:18.441Z,11.80
2019-03-29T15:43:45.903Z,11.80
2019-03-29T15:46:13.496Z,11.90
2019-03-29T15:48:40.990Z,11.80
2019-03-29T15:51:08.350Z,11.70
2019-03-29T15:53:35.710Z,11.70
2019-03-29T15:56:03.290Z,11.60
2019-03-29T15:58:30.769Z,11.60
2019-03-29T16:00:58.331Z,11.50
2019-03-29T16:03:25.827Z,11.50
2019-03-29T16:05:53.278Z,11.50
2019-03-29T16:08:20.736Z,11.40
2019-03-29T16:10:48.147Z,11.40
2019-03-29T16:13:18.279Z,11.30
2019-03-29T16:15:45.811Z,11.20
2019-03-29T16:18:13.329Z,11.10
2019-03-29T16:20:40.893Z,11.10
2019-03-29T16:23:09.266Z,11.00
2019-03-29T16:25:36.858Z,10.90
2019-03-29T16:28:04.323Z,10.80
2019-03-29T16:30:31.917Z,10.70
2019-03-29T16:32:59.433Z,10.60
2019-03-29T16:35:26.997Z,10.60
2019-03-29T16:37:57.295Z,10.50
2019-03-29T16:40:23.962Z,10.50
2019-03-29T16:42:51.548Z,10.50
2019-03-29T16:45:19.149Z,10.40
2019-03-29T16:47:46.678Z,10.30
2019-03-29T16:50:14.218Z,10.30
2019-03-29T16:52:41.781Z,10.20
2019-03-29T16:55:13.588Z,10.00
2019-03-29T16:57:40.766Z,9.90
2019-03-29T17:00:12.164Z,9.80
2019-03-29T17:02:38.988Z,9.70
2019-03-29T17:05:07.478Z,9.70
2019-03-29T17:07:34.862Z,9.60
2019-03-29T17:10:02.987Z,9.60
2019-03-29T17:12:30.753Z,9.50
2019-03-29T17:14:58.829Z,9.40
2019-03-29T17:17:26.369Z,9.30
2019-03-29T17:19:53.759Z,9.20
2019-03-29T17:22:21.328Z,9.10
2019-03-29T17:24:56.760Z,9.00
2019-03-29T17:27:18.153Z,8.90
2019-03-29T17:29:45.702Z,8.80
2019-03-29T17:32:13.293Z,8.70
2019-03-29T17:34:40.806Z,8.60
2019-03-29T17:37:08.241Z,8.50
2019-03-29T17:39:35.737Z,8.40
2019-03-29T17:42:03.383Z,8.30
2019-03-29T17:44:31.048Z,8.20
2019-03-29T17:46:58.597Z,8.10
2019-03-29T17:49:25.927Z,8.00
2019-03-29T17:51:53.373Z,7.90
2019-03-29T17:54:20.852Z,7.90
2019-03-29T17:56:48.320Z,7.80
2019-03-29T17:59:15.793Z,7.80
2019-03-29T18:01:43.187Z,7.80
2019-03-29T18:04:10.632Z,7.80
2019-03-29T18:06:38.068Z,7.80
2019-03-29T18:09:06.533Z,7.80
2019-03-29T18:11:33.966Z,7.70
2019-03-29T18:14:01.336Z,7.70
2019-03-29T18:16:30.825Z,7.70
2019-03-29T18:18:58.189Z,7.80
2019-03-29T18:21:25.637Z,7.80
2019-03-29T18:23:53.122Z,7.80
2019-03-29T18:26:20.669Z,7.90
2019-03-29T18:28:48.107Z,8.00
2019-03-29T18:31:15.794Z,8.00
2019-03-29T18:33:43.745Z,8.00
2019-03-29T18:36:11.370Z,8.10
2019-03-29T18:38:39.582Z,8.00
2019-03-29T18:41:07.051Z,8.00
2019-03-29T18:43:34.381Z,8.00
2019-03-29T18:46:01.987Z,8.00
2019-03-29T18:48:29.425Z,7.90
2019-03-29T18:50:56.764Z,7.90
2019-03-29T18:53:24.358Z,7.90
2019-03-29T18:55:51.819Z,7.90
2019-03-29T18:58:19.364Z,7.80
2019-03-29T19:00:47.150Z,7.80
2019-03-29T19:03:14.854Z,7.80
2019-03-29T19:05:42.297Z,7.80
2019-03-29T19:08:09.682Z,7.80
2019-03-29T19:10:37.156Z,7.80
2019-03-29T19:13:04.494Z,7.80
2019-03-29T19:15:31.979Z,7.70
2019-03-29T19:17:59.352Z,7.70
2019-03-29T19:20:28.241Z,7.60
2019-03-29T19:22:55.997Z,7.60
2019-03-29T19:25:23.463Z,7.50
2019-03-29T19:27:50.896Z,7.50
2019-03-29T19:30:18.878Z,7.40
2019-03-29T19:32:46.326Z,7.40
2019-03-29T19:35:13.899Z,7.30
2019-03-29T19:37:41.593Z,7.30
2019-03-29T19:40:10.347Z,7.30
2019-03-29T19:42:37.969Z,7.30
2019-03-29T19:45:07.574Z,7.20
2019-03-29T19:47:35.167Z,7.20
2019-03-29T19:50:03.794Z,7.20
2019-03-29T19:52:31.157Z,7.20
2019-03-29T19:55:01.299Z,7.20
2019-03-29T19:57:28.007Z,7.20
2019-03-29T19:59:55.636Z,7.10
2019-03-29T20:02:23.072Z,7.10
2019-03-29T20:04:50.426Z,7.10
2019-03-29T20:07:20.376Z,7.10
2019-03-29T20:09:47.411Z,7.10
2019-03-29T20:12:15.004Z,7.10
2019-03-29T20:14:42.481Z,7.00
2019-03-29T20:17:10.031Z,7.10
2019-03-29T20:19:37.375Z,7.10
2019-03-29T20:22:04.850Z,7.10
2019-03-29T20:24:32.402Z,7.10
2019-03-29T20:26:59.833Z,7.10
2019-03-29T20:29:27.421Z,7.10
2019-03-29T20:31:54.762Z,7.10
2019-03-29T20:34:22.205Z,7.00
2019-03-29T20:36:49.685Z,6.90
2019-03-29T20:39:17.038Z,7.00
2019-03-29T20:41:44.383Z,6.90
2019-03-29T20:44:11.874Z,6.90
2019-03-29T20:46:39.198Z,6.90
2019-03-29T20:49:06.654Z,7.00
2019-03-29T20:51:34.114Z,6.90
2019-03-29T20:54:01.545Z,6.90
2019-03-29T20:56:29.047Z,6.80
2019-03-29T20:58:56.613Z,6.80
2019-03-29T21:01:24.769Z,6.80
2019-03-29T21:03:52.324Z,6.80
2019-03-29T21:06:19.789Z,6.90
2019-03-29T21:08:47.141Z,6.80
2019-03-29T21:11:14.622Z,6.80
2019-03-29T21:13:42.161Z,6.80
2019-03-29T21:16:09.777Z,6.80
2019-03-29T21:18:37.215Z,6.80
2019-03-29T21:21:04.806Z,6.80
2019-03-29T21:23:32.162Z,6.80
2019-03-29T21:25:59.516Z,6.80
2019-03-29T21:28:27.017Z,6.70
2019-03-29T21:30:54.365Z,6.70
2019-03-29T21:33:21.802Z,6.70
2019-03-29T21:35:49.156Z,6.70
2019-03-29T21:38:16.501Z,6.70
2019-03-29T21:40:44.038Z,6.70
2019-03-29T21:43:11.530Z,6.60
2019-03-29T21:45:38.989Z,6.60
2019-03-29T21:48:27.269Z,6.60
2019-03-29T21:50:35.728Z,6.60
2019-03-29T21:53:03.175Z,6.50
2019-03-29T21:55:30.624Z,6.50
2019-03-29T21:57:58.114Z,6.40
2019-03-29T22:00:25.666Z,6.40
2019-03-29T22:02:53.139Z,6.40
2019-03-29T22:05:20.834Z,6.40
2019-03-29T22:07:48.370Z,6.40
2019-03-29T22:10:15.832Z,6.40
2019-03-29T22:12:43.505Z,6.40
2019-03-29T22:15:12.060Z,6.30
2019-03-29T22:17:39.496Z,6.30
2019-03-29T22:20:08.749Z,6.20
2019-03-29T22:22:36.357Z,6.20
2019-03-29T22:25:04.774Z,6.20
2019-03-29T22:27:32.186Z,6.20
2019-03-29T22:29:59.573Z,6.10
2019-03-29T22:32:27.030Z,6.10
2019-03-29T22:34:54.516Z,6.00
2019-03-29T22:37:21.902Z,6.00
2019-03-29T22:39:49.345Z,5.90
2019-03-29T22:42:16.855Z,5.80
2019-03-29T22:44:44.338Z,5.70
2019-03-29T22:47:12.024Z,5.80
2019-03-29T22:49:39.831Z,5.70
2019-03-29T22:52:07.264Z,5.70
2019-03-29T22:54:34.902Z,5.60
2019-03-29T22:57:02.485Z,5.60
2019-03-29T22:59:29.963Z,5.60
2019-03-29T23:01:57.714Z,5.60
2019-03-29T23:04:25.219Z,5.60
2019-03-29T23:06:52.697Z,5.60
2019-03-29T23:09:20.045Z,5.40
2019-03-29T23:11:47.672Z,5.40
2019-03-29T23:14:15.225Z,5.40
2019-03-29T23:16:42.685Z,5.50
2019-03-29T23:19:10.174Z,5.40
2019-03-29T23:21:37.666Z,5.40
2019-03-29T23:24:05.114Z,5.40
2019-03-29T23:26:32.478Z,5.40
2019-03-29T23:28:59.906Z,5.30
2019-03-29T23:31:27.341Z,5.30
2019-03-29T23:33:54.887Z,5.30
2019-03-29T23:36:24.953Z,5.30
2019-03-29T23:38:52.458Z,5.30
2019-03-29T23:41:19.856Z,5.30
2019-03-29T23:43:47.246Z,5.20
2019-03-29T23:46:14.645Z,5.20
2019-03-29T23:48:42.024Z,5.20
2019-03-29T23:51:09.465Z,5.20
2019-03-29T23:53:36.836Z,5.20
2019-03-29T23:56:04.421Z,5.20
2019-03-29T23:58:31.863Z,5.20
